CheckWX is a tool to help pilots better visualize weather data.  It is not intended as a substitute for an official pre-flight weather briefing.

11:24:06 UTC

KABR TAF
Aberdeen Regional Airport
Aberdeen, South Dakota, USA
KABR 031123Z 0312/0412 33015KT P6SM -SN SCT018 OVC080 FM031400 32013KT P6SM BKN080 FM031900 32009KT P6SM SKC FM040100 VRB03KT P6SM SKC

Apr-3@
12:00 UTC

Apr-3 @ 12:00 UTC

Apr-3@
14:00 UTC

Apr-3 @ 14:00 UTC

TAF KABR 031123Z 0312/0412 33015KT P6SM -SN SCT018 OVC080

Expired

Wind
  • 330° at 15 KTS
Conditions
Light Snow
Cloud Levels
  • Scattered at 1,800' AGL
  • Overcast at 8,000' AGL

Apr-3@
14:00 UTC

Apr-3 @ 14:00 UTC

Apr-3@
19:00 UTC

Apr-3 @ 19:00 UTC

FM031400 32013KT P6SM BKN080

Expired

Wind
  • 320° at 13 KTS
Cloud Levels
  • Broken at 8,000' AGL

Apr-3@
19:00 UTC

Apr-3 @ 19:00 UTC

Apr-4@
01:00 UTC

Apr-4 @ 01:00 UTC

FM031900 32009KT P6SM SKC

Expired

Wind
  • 320° at 9 KTS
Cloud Levels
  • Clear skies

Apr-4@
01:00 UTC

Apr-4 @ 01:00 UTC

Apr-4@
12:00 UTC

Apr-4 @ 12:00 UTC

FM040100 VRB03KT P6SM SKC

From

From Standard forecast or significant change

Wind
  • Variable at 3 KTS
Cloud Levels
  • Clear skies